Time;durP1;ratioP1;P1;durP2;ratioP2;P2;SDS_P1;SDS_P2;PMS_P1;PMS_P2;Temp;Humidity;BMP_temperature;BMP_pressure;BME280_temperature;BME280_humidity;BME280_pressure;Samples;Min_cycle;Max_cycle;Signal;HPM_P1;HPM_P2
2021/09/01 00:01:37;;;;;;;4.28;3.20;;;;;;;28.08;38.63;101056.66;144994;574;5002;-79
2021/09/01 00:04:04;;;;;;;3.75;2.87;;;;;;;28.08;41.69;101061.13;144994;579;5002;-80
2021/09/01 00:06:30;;;;;;;6.40;3.20;;;;;;;28.05;41.65;101059.44;144994;588;5002;-79
2021/09/01 00:08:57;;;;;;;3.80;2.75;;;;;;;27.99;41.63;101055.22;144994;564;5002;-79
2021/09/01 00:11:23;;;;;;;3.30;2.70;;;;;;;27.97;41.69;101053.53;144994;583;5002;-81
2021/09/01 00:13:50;;;;;;;3.62;3.12;;;;;;;27.96;41.59;101057.13;144994;565;5002;-80
2021/09/01 00:16:29;;;;;;;3.45;3.00;;;;;;;27.97;41.48;101057.06;144994;679;5002;-81
2021/09/01 00:19:03;;;;;;;5.75;2.87;;;;;;;27.97;41.42;101054.41;144994;612;5002;-80
2021/09/01 00:21:30;;;;;;;3.70;3.30;;;;;;;27.97;41.28;101065.06;144994;570;5002;-80
2021/09/01 00:23:57;;;;;;;4.93;3.03;;;;;;;27.96;41.34;101057.13;144993;629;6002;-80
2021/09/01 00:26:24;;;;;;;5.60;3.10;;;;;;;27.95;41.39;101055.38;144994;565;5002;-81
2021/09/01 00:28:50;;;;;;;4.53;3.40;;;;;;;27.95;41.42;101063.38;144994;566;5002;-82
2021/09/01 00:31:18;;;;;;;3.85;3.30;;;;;;;27.95;41.34;101055.38;144994;600;5002;-80
2021/09/01 00:33:45;;;;;;;4.72;3.30;;;;;;;27.93;41.28;101060.72;144994;614;5002;-81
2021/09/01 00:36:12;;;;;;;3.85;3.45;;;;;;;27.93;41.33;101062.53;144994;670;5002;-82
2021/09/01 00:38:38;;;;;;;3.50;3.20;;;;;;;27.92;41.12;101059.00;144994;612;5002;-83
2021/09/01 00:41:05;;;;;;;3.87;3.35;;;;;;;27.92;41.38;101055.47;144994;740;5002;-80
2021/09/01 00:43:31;;;;;;;4.60;3.22;;;;;;;27.87;41.29;101047.63;144994;585;5002;-81
2021/09/01 00:45:59;;;;;;;3.40;3.10;;;;;;;27.87;41.24;101056.50;144994;593;5002;-80
2021/09/01 00:48:26;;;;;;;3.97;3.30;;;;;;;27.86;41.25;101049.44;144994;698;5002;-80
2021/09/01 00:50:56;;;;;;;3.17;2.85;;;;;;;27.87;41.29;101048.50;144994;622;5002;-80
2021/09/01 00:53:27;;;;;;;3.75;3.12;;;;;;;27.87;41.34;101047.63;144994;566;5002;-81
2021/09/01 00:55:56;;;;;;;6.75;3.22;;;;;;;27.88;41.34;101049.38;144994;570;5002;-82
2021/09/01 00:58:23;;;;;;;5.80;3.30;;;;;;;27.89;41.28;101053.78;144994;599;5002;-82
2021/09/01 01:01:14;;;;;;;3.55;2.75;;;;;;;27.88;41.21;101046.69;144994;733;5002;-81
2021/09/01 01:04:01;;;;;;;10.18;3.28;;;;;;;27.88;41.26;101049.38;144994;570;5002;-80
2021/09/01 01:06:29;;;;;;;3.40;2.95;;;;;;;27.89;41.25;101051.13;144994;589;5004;-81
2021/09/01 01:08:56;;;;;;;4.60;3.15;;;;;;;27.88;41.31;101052.03;144994;724;5004;-81
2021/09/01 01:11:23;;;;;;;4.35;3.17;;;;;;;27.89;41.38;101045.78;144994;582;5004;-80
2021/09/01 01:13:51;;;;;;;4.10;2.83;;;;;;;27.86;41.28;101048.56;144994;566;5004;-79
2021/09/01 01:16:24;;;;;;;5.05;3.20;;;;;;;27.85;41.16;101047.72;144994;597;5004;-81
2021/09/01 01:18:52;;;;;;;3.17;2.80;;;;;;;27.85;41.12;101047.72;144994;570;5004;-81
2021/09/01 01:21:27;;;;;;;3.20;2.90;;;;;;;27.83;41.16;101046.87;144994;568;5004;-81
2021/09/01 01:23:59;;;;;;;2.95;2.55;;;;;;;27.81;41.25;101048.75;144994;610;5004;-80
2021/09/01 01:26:32;;;;;;;3.87;2.97;;;;;;;27.82;40.94;101049.59;144994;584;5005;-81
2021/09/01 01:29:01;;;;;;;3.08;2.58;;;;;;;27.83;41.10;101051.34;144994;585;5004;-81
2021/09/01 01:31:33;;;;;;;3.10;2.62;;;;;;;27.85;40.66;101054.81;144994;713;5004;-80
2021/09/01 01:34:02;;;;;;;3.65;2.90;;;;;;;27.85;40.99;101058.38;144994;709;5005;-80
2021/09/01 01:36:28;;;;;;;4.40;2.75;;;;;;;27.86;40.81;101051.25;144994;674;5004;-80
2021/09/01 01:38:55;;;;;;;3.75;2.80;;;;;;;27.85;40.88;101049.47;144994;582;5004;-82
2021/09/01 01:41:22;;;;;;;3.12;2.70;;;;;;;27.81;40.65;101054.06;144994;572;5004;-81
2021/09/01 01:43:49;;;;;;;4.78;2.72;;;;;;;27.77;40.76;101051.56;144994;587;5004;-80
2021/09/01 01:46:18;;;;;;;5.97;2.85;;;;;;;27.74;40.74;101055.22;144994;598;5004;-81
2021/09/01 01:48:45;;;;;;;3.12;2.83;;;;;;;27.74;40.64;101051.69;144994;595;5004;-80
2021/09/01 01:51:11;;;;;;;2.90;2.60;;;;;;;27.74;40.64;101055.22;144994;566;5004;-78
2021/09/01 01:53:38;;;;;;;5.82;3.00;;;;;;;27.75;40.53;101062.28;144994;582;5004;-81
2021/09/01 01:56:05;;;;;;;3.72;2.90;;;;;;;27.75;40.48;101059.63;144994;573;5004;-81
2021/09/01 01:58:31;;;;;;;3.30;2.90;;;;;;;27.74;40.33;101067.69;144994;764;5004;-80
2021/09/01 02:00:58;;;;;;;3.50;2.62;;;;;;;27.69;40.68;101070.50;144994;580;5004;-79
2021/09/01 02:03:24;;;;;;;3.40;2.67;;;;;;;27.68;40.64;101068.78;144994;563;5004;-81
2021/09/01 02:05:51;;;;;;;4.30;3.00;;;;;;;27.64;40.56;101075.16;144994;573;5004;-80
2021/09/01 02:08:17;;;;;;;6.07;3.50;;;;;;;27.60;40.80;101068.19;144994;606;5004;-80
2021/09/01 02:10:43;;;;;;;7.90;6.03;;;;;;;27.59;42.42;101069.12;144994;600;5004;-79
2021/09/01 02:13:10;;;;;;;9.35;8.02;;;;;;;27.55;44.53;101067.47;144994;572;5004;-80
2021/09/01 02:15:37;;;;;;;10.48;7.80;;;;;;;27.49;42.50;101060.59;144994;585;5004;-79
2021/09/01 02:18:04;;;;;;;12.70;7.57;;;;;;;27.51;43.00;101061.38;144994;665;5004;-81
2021/09/01 02:20:30;;;;;;;13.40;8.23;;;;;;;27.50;50.81;101078.31;144994;602;5004;-80
2021/09/01 02:22:57;;;;;;;14.60;8.55;;;;;;;27.49;44.09;101068.59;144994;580;5004;-79
2021/09/01 02:25:26;;;;;;;11.65;8.80;;;;;;;27.47;44.67;101065.97;144994;571;5004;-80
2021/09/01 02:27:53;;;;;;;13.95;9.25;;;;;;;27.46;51.66;101077.53;144994;575;5004;-80
2021/09/01 02:30:22;;;;;;;13.20;9.27;;;;;;;27.36;45.51;101078.78;144994;567;5004;-81
2021/09/01 02:32:48;;;;;;;14.80;9.30;;;;;;;27.33;46.78;101070.91;144994;601;5004;-77
2021/09/01 02:35:18;;;;;;;11.80;8.55;;;;;;;27.31;46.23;101070.06;144994;568;5004;-80
2021/09/01 02:37:44;;;;;;;11.93;8.88;;;;;;;27.31;46.47;101070.97;144994;572;5004;-80
2021/09/01 02:40:11;;;;;;;15.13;10.30;;;;;;;27.34;46.89;101075.31;144994;581;5004;-76
2021/09/01 02:42:38;;;;;;;12.15;8.52;;;;;;;27.35;47.26;101074.37;144994;588;5004;-81
2021/09/01 02:45:05;;;;;;;12.73;8.82;;;;;;;27.36;47.32;101078.78;144994;594;5004;-77
2021/09/01 02:47:34;;;;;;;10.77;7.40;;;;;;;27.38;47.47;101076.94;144994;575;5004;-80
2021/09/01 02:50:02;;;;;;;8.00;5.75;;;;;;;27.37;47.59;101079.66;144994;565;5004;-82
2021/09/01 02:52:29;;;;;;;6.40;5.62;;;;;;;27.36;47.33;101077.91;144994;571;5004;-77
2021/09/01 02:54:55;;;;;;;6.45;5.03;;;;;;;27.32;47.24;101071.81;144994;574;5004;-80
2021/09/01 02:57:22;;;;;;;5.47;4.87;;;;;;;27.29;46.86;101077.22;144994;574;5004;-79
2021/09/01 02:59:48;;;;;;;4.97;4.47;;;;;;;27.28;46.53;101079.03;144994;567;5004;-80
2021/09/01 03:02:15;;;;;;;6.82;5.15;;;;;;;27.26;46.48;101080.84;144994;590;5004;-80
2021/09/01 03:04:45;;;;;;;17.17;5.25;;;;;;;27.27;46.35;101089.75;144994;574;5004;-80
2021/09/01 03:07:11;;;;;;;7.45;5.55;;;;;;;27.27;46.24;101089.75;144994;567;5004;-80
2021/09/01 03:09:37;;;;;;;9.48;6.10;;;;;;;27.22;46.34;101087.22;144994;668;5004;-80
2021/09/01 03:12:07;;;;;;;10.15;6.82;;;;;;;27.22;46.42;101094.34;144994;602;5004;-80
2021/09/01 03:14:34;;;;;;;9.75;7.60;;;;;;;27.24;46.57;101093.38;144994;604;5004;-80
2021/09/01 03:17:00;;;;;;;9.15;6.37;;;;;;;27.25;46.56;101103.12;144994;577;5004;-82
2021/09/01 03:19:27;;;;;;;13.48;6.50;;;;;;;27.22;46.87;101103.22;144994;598;5004;-77
2021/09/01 03:21:53;;;;;;;9.27;5.95;;;;;;;27.22;46.70;101108.56;144994;583;5004;-81
2021/09/01 03:24:19;;;;;;;7.78;5.43;;;;;;;27.20;46.80;101109.50;144994;596;5004;-80
2021/09/01 03:26:46;;;;;;;7.18;4.60;;;;;;;27.21;46.58;101113.94;144994;571;5004;-81
2021/09/01 03:29:12;;;;;;;5.70;4.40;;;;;;;27.15;46.64;101107.00;144994;573;5004;-81
2021/09/01 03:31:39;;;;;;;4.50;4.03;;;;;;;27.11;46.41;101114.22;144994;562;5004;-81
2021/09/01 03:34:05;;;;;;;6.43;3.65;;;;;;;27.11;46.20;101116.03;144994;761;5004;-80
2021/09/01 03:36:32;;;;;;;4.10;3.05;;;;;;;27.05;46.03;101118.91;144994;659;5004;-81
2021/09/01 03:38:58;;;;;;;5.75;3.78;;;;;;;27.05;45.43;101108.25;144994;597;5004;-81
2021/09/01 03:41:25;;;;;;;7.25;3.72;;;;;;;27.04;45.29;101120.66;144994;564;5005;-81
2021/09/01 03:43:51;;;;;;;4.12;3.55;;;;;;;27.06;45.06;101116.19;144994;603;5004;-81
2021/09/01 03:46:18;;;;;;;6.00;3.50;;;;;;;27.05;44.83;101118.91;144994;625;5004;-81
2021/09/01 03:48:44;;;;;;;13.48;3.42;;;;;;;27.05;45.02;101117.09;144994;598;5005;-81
2021/09/01 03:51:11;;;;;;;4.60;3.67;;;;;;;27.03;44.63;101126.03;144994;658;5004;-79
2021/09/01 03:53:37;;;;;;;4.87;3.72;;;;;;;27.04;44.76;101122.47;144994;585;5004;-81
2021/09/01 03:56:04;;;;;;;4.70;3.83;;;;;;;27.05;44.52;101125.09;144994;619;5005;-81
2021/09/01 03:58:30;;;;;;;5.87;3.90;;;;;;;27.08;44.74;101134.78;144994;576;5004;-81
2021/09/01 04:00:57;;;;;;;5.05;4.03;;;;;;;27.06;44.90;101129.50;144994;571;5004;-81
2021/09/01 04:03:23;;;;;;;5.78;3.72;;;;;;;27.07;44.73;101135.69;144993;580;5004;-79
2021/09/01 04:05:50;;;;;;;4.87;4.03;;;;;;;27.07;44.92;101136.56;144994;574;5002;-80
2021/09/01 04:08:16;;;;;;;7.87;3.92;;;;;;;27.08;44.70;101143.62;144994;595;5002;-81
2021/09/01 04:10:43;;;;;;;8.27;3.95;;;;;;;27.09;44.57;101133.84;144994;623;5002;-80
2021/09/01 04:13:12;;;;;;;5.07;4.15;;;;;;;27.08;44.74;101137.44;144994;576;5002;-82
2021/09/01 04:15:38;;;;;;;5.90;3.90;;;;;;;27.08;44.65;101142.78;144994;631;4566;-81
2021/09/01 04:18:05;;;;;;;8.45;4.05;;;;;;;27.07;44.68;101155.19;144994;682;4566;-80
2021/09/01 04:20:31;;;;;;;7.75;3.95;;;;;;;27.05;44.51;101143.75;144994;566;4572;-78
2021/09/01 04:22:58;;;;;;;8.15;3.95;;;;;;;27.05;44.74;101150.88;144992;589;6002;-80
2021/09/01 04:25:24;;;;;;;6.47;4.15;;;;;;;27.04;44.62;101152.63;144992;597;6002;-81
2021/09/01 04:27:50;;;;;;;4.68;3.95;;;;;;;27.04;44.82;101160.62;144992;582;6002;-80
2021/09/01 04:30:17;;;;;;;7.25;4.37;;;;;;;27.07;44.92;101157.88;144992;585;6002;-81
2021/09/01 04:32:43;;;;;;;6.70;4.25;;;;;;;27.09;44.89;101161.38;144992;569;6002;-80
2021/09/01 04:35:11;;;;;;;7.57;4.20;;;;;;;27.10;44.86;101156.91;144992;580;6002;-80
2021/09/01 04:37:37;;;;;;;4.97;4.18;;;;;;;27.12;44.91;101176.37;144992;571;6002;-80
2021/09/01 04:40:04;;;;;;;5.35;4.07;;;;;;;27.10;45.02;101171.09;144992;587;6002;-80
2021/09/01 04:42:31;;;;;;;6.50;4.40;;;;;;;27.09;45.14;101172.03;144992;565;6002;-82
2021/09/01 04:44:57;;;;;;;9.15;4.78;;;;;;;27.10;44.98;101168.44;144992;587;6002;-81
2021/09/01 04:47:24;;;;;;;5.65;3.80;;;;;;;27.13;45.24;101170.13;144992;822;6002;-81
2021/09/01 04:49:50;;;;;;;6.28;4.25;;;;;;;27.17;45.16;101182.44;144992;566;6002;-80
2021/09/01 04:52:17;;;;;;;6.22;4.22;;;;;;;27.20;45.46;101184.12;144992;589;6002;-80
2021/09/01 04:54:43;;;;;;;6.45;4.47;;;;;;;27.25;45.35;101195.50;144992;585;6002;-80
2021/09/01 04:57:09;;;;;;;5.90;4.45;;;;;;;27.27;45.21;101194.53;144991;652;6002;-81
2021/09/01 04:59:36;;;;;;;6.30;4.25;;;;;;;27.32;45.27;101189.09;144992;578;6002;-81
2021/09/01 05:02:03;;;;;;;6.93;4.60;;;;;;;27.37;45.29;101196.94;144992;580;6002;-80
2021/09/01 05:04:29;;;;;;;5.95;4.03;;;;;;;27.41;45.18;101204.78;144992;801;6002;-80
2021/09/01 05:06:56;;;;;;;7.45;5.40;;;;;;;27.46;45.42;101200.19;144992;600;6002;-81
2021/09/01 05:09:22;;;;;;;6.25;4.60;;;;;;;27.49;45.25;101210.75;144992;675;6002;-81
2021/09/01 05:11:49;;;;;;;6.60;4.85;;;;;;;27.50;45.47;101211.59;144992;632;6002;-81
2021/09/01 05:14:15;;;;;;;8.48;4.30;;;;;;;27.53;45.37;101210.63;144992;619;6002;-81
2021/09/01 05:16:42;;;;;;;6.57;4.50;;;;;;;27.54;45.28;101217.69;144992;571;6002;-80
2021/09/01 05:19:10;;;;;;;8.52;4.30;;;;;;;27.57;45.31;101222.94;144992;573;6002;-82
2021/09/01 05:21:46;;;;;;;6.78;4.40;;;;;;;27.60;45.01;101233.50;144992;569;6002;-81
2021/09/01 05:24:37;;;;;;;5.40;4.30;;;;;;;27.62;45.02;101232.53;144992;590;6002;-81
2021/09/01 05:27:21;;;;;;;5.65;4.53;;;;;;;27.66;44.99;101230.63;144992;576;6002;-80
2021/09/01 05:29:49;;;;;;;4.80;4.07;;;;;;;27.69;44.86;101239.38;144992;749;6002;-81
2021/09/01 05:32:28;;;;;;;6.80;4.40;;;;;;;27.76;44.77;101237.41;144992;571;6002;-81
2021/09/01 05:34:59;;;;;;;6.57;4.15;;;;;;;27.89;44.65;101232.53;144992;571;6002;-80
2021/09/01 05:37:27;;;;;;;5.43;4.35;;;;;;;28.02;44.44;101233.87;144992;569;6002;-80
2021/09/01 05:39:59;;;;;;;6.30;4.22;;;;;;;28.17;44.36;101231.56;144992;563;6002;-79
2021/09/01 05:42:28;;;;;;;5.22;4.28;;;;;;;28.31;43.99;101220.41;144992;569;6002;-80
2021/09/01 05:44:57;;;;;;;5.03;4.45;;;;;;;28.42;44.09;101215.53;144992;593;6002;-80
2021/09/01 05:47:28;;;;;;;6.32;4.37;;;;;;;28.55;44.09;101214.13;144992;592;6002;-82
2021/09/01 05:49:57;;;;;;;5.78;4.10;;;;;;;28.63;43.96;101211.22;144992;571;6002;-81
2021/09/01 05:52:25;;;;;;;6.43;4.90;;;;;;;28.68;43.95;101208.38;144992;668;6002;-79
2021/09/01 05:54:55;;;;;;;5.30;4.50;;;;;;;28.70;43.65;101198.53;144992;665;6002;-80
2021/09/01 05:57:34;;;;;;;9.75;4.55;;;;;;;28.72;43.96;101202.84;144992;749;6002;-80
2021/09/01 06:00:14;;;;;;;5.30;4.37;;;;;;;28.72;43.81;101188.66;144992;621;6002;-81
2021/09/01 06:03:23;;;;;;;6.87;4.57;;;;;;;28.67;43.76;101187.97;144992;594;6002;-81
2021/09/01 06:05:55;;;;;;;6.10;4.32;;;;;;;28.67;44.26;101175.47;144992;564;6002;-80
2021/09/01 06:08:24;;;;;;;7.20;4.65;;;;;;;28.67;43.93;101172.78;144992;684;6002;-81
2021/09/01 06:10:54;;;;;;;5.70;4.70;;;;;;;28.70;44.24;101177.16;144992;572;6002;-80
2021/09/01 06:13:21;;;;;;;8.80;4.70;;;;;;;28.72;44.40;101181.50;144992;592;6002;-80
2021/09/01 06:15:49;;;;;;;9.45;4.78;;;;;;;28.73;44.39;101193.94;144992;733;6002;-81
2021/09/01 06:18:16;;;;;;;7.37;4.68;;;;;;;28.80;44.21;101191.03;144992;684;6002;-80
2021/09/01 06:20:42;;;;;;;11.00;4.90;;;;;;;28.86;44.11;101188.97;144992;577;6002;-81
2021/09/01 06:23:09;;;;;;;6.22;4.85;;;;;;;28.93;44.20;101187.78;144992;564;6002;-81
2021/09/01 06:25:36;;;;;;;8.55;5.05;;;;;;;28.99;44.06;101180.47;144992;577;6002;-79
2021/09/01 06:28:08;;;;;;;6.18;4.87;;;;;;;29.06;44.01;101179.28;144992;581;6002;-80
2021/09/01 06:30:35;;;;;;;6.78;4.90;;;;;;;29.08;44.06;101172.94;144992;588;6002;-81
2021/09/01 06:33:02;;;;;;;12.02;6.03;;;;;;;29.08;44.19;101180.97;144992;592;6002;-80
2021/09/01 06:35:28;;;;;;;6.85;5.50;;;;;;;29.10;44.33;101175.56;144991;637;6002;-81
2021/09/01 06:37:55;;;;;;;6.68;5.57;;;;;;;29.11;44.58;101177.28;144992;598;6002;-81
2021/09/01 06:40:21;;;;;;;6.10;5.10;;;;;;;29.16;44.69;101178.00;144992;662;6002;-81
2021/09/01 06:42:48;;;;;;;5.85;5.00;;;;;;;29.18;44.73;101170.78;144992;609;6002;-81
2021/09/01 06:45:15;;;;;;;6.60;5.90;;;;;;;29.20;44.73;101174.28;144992;566;6002;-79
2021/09/01 06:47:44;;;;;;;9.52;6.15;;;;;;;29.22;44.86;101171.53;144992;593;6002;-80
2021/09/01 06:50:12;;;;;;;8.07;5.97;;;;;;;29.22;44.83;101169.72;144992;585;6002;-82
2021/09/01 06:52:38;;;;;;;9.35;5.57;;;;;;;29.25;45.01;101168.75;144992;569;6002;-78
2021/09/01 06:55:06;;;;;;;6.90;5.85;;;;;;;29.30;45.36;101169.41;144992;655;6003;-81
2021/09/01 06:57:33;;;;;;;7.25;6.22;;;;;;;29.35;47.41;101177.25;144992;659;6002;-81
2021/09/01 06:59:59;;;;;;;8.50;5.50;;;;;;;29.34;45.45;101194.25;144992;587;6002;-81
2021/09/01 07:02:26;;;;;;;7.37;5.65;;;;;;;29.31;45.98;101179.19;144992;594;6002;-81
2021/09/01 07:04:52;;;;;;;8.15;5.82;;;;;;;29.25;46.10;101166.94;144992;574;6002;-81
2021/09/01 07:07:19;;;;;;;10.77;6.53;;;;;;;29.16;46.24;101169.06;144992;595;6002;-81
2021/09/01 07:09:45;;;;;;;8.02;5.97;;;;;;;29.04;46.63;101175.81;144992;658;6002;-81
2021/09/01 07:12:12;;;;;;;10.77;6.28;;;;;;;29.00;46.58;101174.19;144992;564;6002;-81
2021/09/01 07:14:38;;;;;;;8.85;6.68;;;;;;;28.93;47.76;101182.44;144992;565;6002;-81
2021/09/01 07:17:05;;;;;;;8.15;6.53;;;;;;;29.00;47.12;101174.19;144992;673;6002;-81
2021/09/01 07:19:31;;;;;;;8.82;6.93;;;;;;;29.05;47.02;101178.41;144992;609;6002;-81
2021/09/01 07:21:57;;;;;;;11.90;6.40;;;;;;;29.12;46.84;101173.69;144992;581;6002;-82
2021/09/01 07:24:24;;;;;;;10.32;6.35;;;;;;;29.09;48.88;101172.00;144992;642;6002;-81
2021/09/01 07:26:50;;;;;;;7.72;6.00;;;;;;;29.15;47.19;101173.56;144992;690;6002;-82
2021/09/01 07:29:17;;;;;;;7.07;6.28;;;;;;;29.31;47.26;101173.84;144992;566;6002;-82
2021/09/01 07:31:46;;;;;;;7.40;5.75;;;;;;;29.36;47.35;101170.97;144992;589;6002;-82
2021/09/01 07:34:13;;;;;;;10.85;6.30;;;;;;;29.41;47.07;101179.66;144992;666;6002;-81
2021/09/01 07:36:39;;;;;;;7.78;6.03;;;;;;;29.47;47.45;101184.75;144992;586;6002;-82
2021/09/01 07:39:06;;;;;;;8.45;6.07;;;;;;;29.49;47.80;101185.56;144992;575;6002;-81
2021/09/01 07:41:33;;;;;;;7.40;6.62;;;;;;;29.40;48.47;101192.19;144992;587;6002;-82
2021/09/01 07:44:00;;;;;;;7.40;5.90;;;;;;;29.49;47.41;101188.22;144992;582;6002;-82
2021/09/01 07:46:26;;;;;;;6.60;6.00;;;;;;;29.58;47.24;101189.66;144992;599;6003;-81
2021/09/01 07:48:57;;;;;;;9.52;6.10;;;;;;;29.70;47.06;101190.94;144992;640;6002;-81
2021/09/01 07:51:24;;;;;;;6.50;5.82;;;;;;;29.85;46.89;101196.53;144992;605;6002;-82
2021/09/01 07:53:50;;;;;;;6.95;6.18;;;;;;;29.64;47.77;101195.63;144992;569;6002;-82
2021/09/01 07:56:20;;;;;;;9.30;6.90;;;;;;;29.60;47.68;101190.47;144992;578;6002;-83
2021/09/01 07:58:46;;;;;;;7.20;6.50;;;;;;;29.63;47.83;101182.31;144992;628;6002;-82
2021/09/01 08:01:13;;;;;;;11.55;7.35;;;;;;;29.59;48.45;101188.72;144992;565;6002;-81
2021/09/01 08:03:39;;;;;;;10.98;6.90;;;;;;;29.61;48.30;101185.03;144992;598;6002;-81
2021/09/01 08:06:07;;;;;;;9.82;6.60;;;;;;;29.77;48.78;101187.06;144992;614;6002;-81
2021/09/01 08:08:34;;;;;;;7.03;6.32;;;;;;;29.84;47.59;101186.78;144992;581;6002;-81
2021/09/01 08:11:00;;;;;;;7.80;6.22;;;;;;;29.72;47.97;101181.91;144992;574;6002;-81
2021/09/01 08:13:27;;;;;;;8.25;6.45;;;;;;;29.69;47.67;101183.88;144992;579;6002;-82
2021/09/01 08:15:54;;;;;;;7.43;5.45;;;;;;;29.71;47.39;101185.50;144992;570;6002;-83
2021/09/01 08:18:21;;;;;;;7.32;5.47;;;;;;;29.82;47.58;101185.94;144992;593;6002;-82
2021/09/01 08:20:47;;;;;;;6.47;5.57;;;;;;;29.76;47.55;101188.84;144992;564;6002;-83
2021/09/01 08:23:15;;;;;;;8.48;5.72;;;;;;;29.98;46.84;101179.94;144992;580;6002;-80
2021/09/01 08:25:41;;;;;;;6.80;5.93;;;;;;;29.95;48.15;101188.97;144992;593;6002;-81
2021/09/01 08:28:08;;;;;;;9.02;5.85;;;;;;;29.95;47.41;101191.62;144992;585;6002;-81
2021/09/01 08:30:34;;;;;;;6.35;5.37;;;;;;;30.05;47.05;101185.87;144992;660;6002;-81
2021/09/01 08:33:01;;;;;;;10.35;5.53;;;;;;;29.95;47.19;101182.75;144992;571;6002;-82
2021/09/01 08:35:27;;;;;;;5.97;5.37;;;;;;;29.78;47.93;101184.34;144992;613;6002;-83
2021/09/01 08:37:53;;;;;;;6.28;5.25;;;;;;;29.88;47.58;101181.28;144992;642;6002;-83
2021/09/01 08:40:20;;;;;;;6.00;5.40;;;;;;;29.83;47.58;101181.50;144992;567;6002;-84
2021/09/01 08:42:47;;;;;;;6.05;5.45;;;;;;;29.83;47.76;101179.66;144992;628;6002;-78
2021/09/01 08:45:14;;;;;;;7.12;5.30;;;;;;;29.86;47.81;101184.03;144992;635;6002;-83
2021/09/01 08:47:40;;;;;;;8.40;5.68;;;;;;;30.00;46.96;101176.25;144992;623;6002;-82
2021/09/01 08:50:09;;;;;;;6.78;4.87;;;;;;;29.91;47.53;101176.66;144992;563;6002;-82
2021/09/01 08:52:38;;;;;;;6.20;5.60;;;;;;;29.94;46.91;101172.97;144992;599;6002;-80
2021/09/01 08:55:10;;;;;;;7.62;6.07;;;;;;;30.06;47.19;101187.62;144992;576;6002;-80
2021/09/01 08:57:37;;;;;;;7.18;5.85;;;;;;;30.15;46.65;101185.41;144992;574;6002;-77
2021/09/01 09:00:09;;;;;;;7.25;5.60;;;;;;;30.18;46.58;101176.37;144992;578;6002;-80
2021/09/01 09:02:35;;;;;;;5.70;5.18;;;;;;;30.21;47.38;101181.59;144992;629;6002;-81
2021/09/01 09:05:07;;;;;;;7.35;6.65;;;;;;;30.21;47.38;101181.59;144992;592;6002;-83
2021/09/01 09:07:54;;;;;;;7.37;6.65;;;;;;;30.15;47.60;101181.88;144992;606;6002;-82
2021/09/01 09:10:47;;;;;;;6.90;6.20;;;;;;;30.23;47.71;101177.03;144992;627;6002;-84
2021/09/01 09:13:16;;;;;;;6.72;6.03;;;;;;;30.27;47.65;101167.91;144992;624;6004;-83
2021/09/01 09:15:43;;;;;;;17.40;14.55;;;;;;;29.99;48.15;101169.16;144992;589;6004;-82
2021/09/01 09:18:28;;;;;;;6.85;6.15;;;;;;;30.17;47.23;101161.25;144992;572;6004;-81
2021/09/01 09:21:19;;;;;;;8.50;7.50;;;;;;;29.97;48.47;101160.34;144992;649;6004;-85
2021/09/01 09:23:49;;;;;;;9.25;7.28;;;;;;;30.07;48.62;101167.94;144992;589;6004;-81
2021/09/01 09:26:30;;;;;;;6.55;5.62;;;;;;;30.05;48.11;101153.75;144992;596;6004;-82
2021/09/01 09:29:16;;;;;;;6.03;5.43;;;;;;;30.24;47.13;101165.34;144992;568;6004;-81
2021/09/01 09:31:58;;;;;;;6.43;5.20;;;;;;;30.28;47.18;101166.97;144992;562;6004;-82
2021/09/01 09:34:40;;;;;;;6.75;5.28;;;;;;;30.23;47.55;101162.78;144992;614;6004;-81
2021/09/01 09:37:14;;;;;;;6.35;5.00;;;;;;;30.24;46.87;101162.69;144992;571;6004;-82
2021/09/01 09:39:52;;;;;;;7.30;5.22;;;;;;;30.29;46.89;101152.66;144992;571;6004;-82
2021/09/01 09:42:33;;;;;;;9.43;5.93;;;;;;;30.34;46.46;101161.34;144992;574;6004;-81
2021/09/01 09:45:18;;;;;;;7.35;5.62;;;;;;;30.36;45.85;101147.88;144992;600;6004;-82
2021/09/01 09:47:55;;;;;;;6.07;5.20;;;;;;;30.27;46.53;101137.59;144992;581;6004;-81
2021/09/01 09:50:22;;;;;;;6.25;5.20;;;;;;;30.36;45.25;101142.53;144992;586;6012;-82
2021/09/01 09:52:50;;;;;;;7.32;5.12;;;;;;;30.33;46.04;101137.31;144992;565;6004;-82
2021/09/01 09:55:18;;;;;;;5.97;5.15;;;;;;;30.42;45.83;101126.19;144992;626;6004;-83
2021/09/01 09:57:56;;;;;;;7.03;4.95;;;;;;;30.43;45.02;101132.41;144992;566;6004;-83
2021/09/01 10:00:25;;;;;;;9.05;5.60;;;;;;;30.37;45.19;101129.06;144992;575;6004;-82
2021/09/01 10:02:52;;;;;;;5.75;4.87;;;;;;;30.26;46.07;101128.69;144992;598;6004;-83
2021/09/01 10:05:22;;;;;;;6.87;4.80;;;;;;;30.38;45.90;101130.84;144992;598;6004;-82
2021/09/01 10:07:49;;;;;;;6.60;5.40;;;;;;;30.36;45.52;101131.81;144992;647;6004;-84
2021/09/01 10:10:16;;;;;;;5.82;5.18;;;;;;;30.41;45.51;101131.63;144992;562;6004;-81
2021/09/01 10:12:47;;;;;;;7.18;5.57;;;;;;;30.31;46.50;101133.84;144992;574;6004;-81
2021/09/01 10:15:21;;;;;;;5.78;5.15;;;;;;;30.57;45.68;101138.00;144992;602;6004;-83
2021/09/01 10:17:55;;;;;;;6.40;5.80;;;;;;;30.56;46.48;101122.88;144992;590;6004;-82
2021/09/01 10:20:25;;;;;;;7.25;5.75;;;;;;;30.48;46.54;101127.69;144992;587;6004;-82
2021/09/01 10:23:05;;;;;;;7.07;5.05;;;;;;;30.66;45.91;101112.59;144992;590;6004;-82
2021/09/01 10:25:42;;;;;;;6.80;5.55;;;;;;;30.54;46.15;101114.91;144992;596;6004;-82
2021/09/01 10:28:40;;;;;;;6.47;5.03;;;;;;;30.54;46.15;101120.28;144992;573;6004;-82
2021/09/01 10:31:29;;;;;;;5.68;5.18;;;;;;;30.51;46.39;101106.12;144992;581;6002;-82
2021/09/01 10:34:01;;;;;;;7.10;5.22;;;;;;;30.43;47.30;101111.00;144992;577;6004;-82
2021/09/01 10:36:38;;;;;;;7.57;5.60;;;;;;;30.42;47.41;101103.88;144993;577;6004;-81
2021/09/01 10:39:35;;;;;;;6.65;5.97;;;;;;;30.23;47.92;101099.38;144993;600;6002;-81
2021/09/01 10:42:37;;;;;;;6.35;5.70;;;;;;;30.12;49.01;101091.84;144993;579;6002;-82
2021/09/01 10:45:12;;;;;;;7.72;6.10;;;;;;;30.38;49.12;101098.72;144993;596;6004;-83
2021/09/01 10:48:11;;;;;;;6.68;6.07;;;;;;;30.31;49.87;101096.34;144993;594;6002;-83
2021/09/01 10:50:45;;;;;;;6.45;5.87;;;;;;;30.38;48.82;101098.72;144993;595;6000;-82
2021/09/01 10:53:33;;;;;;;8.18;5.50;;;;;;;30.52;49.03;101087.31;144993;575;6003;-82
2021/09/01 10:56:06;;;;;;;7.93;5.95;;;;;;;30.50;49.02;101101.75;144993;584;6000;-82
2021/09/01 10:58:41;;;;;;;7.70;6.22;;;;;;;30.44;49.48;101107.38;144993;616;6002;-83
2021/09/01 11:01:26;;;;;;;6.45;5.85;;;;;;;30.38;49.88;101109.41;144993;613;6002;-82
2021/09/01 11:04:04;;;;;;;7.20;6.50;;;;;;;30.29;50.63;101106.25;144993;604;6000;-83
2021/09/01 11:06:35;;;;;;;6.70;6.00;;;;;;;30.35;50.29;101100.59;144993;588;6002;-82
2021/09/01 11:09:07;;;;;;;7.22;6.53;;;;;;;30.32;49.87;101101.63;144992;589;6002;-82
2021/09/01 11:11:54;;;;;;;7.40;5.85;;;;;;;30.45;49.27;101093.91;144992;572;6002;-81
2021/09/01 11:14:42;;;;;;;7.07;6.37;;;;;;;30.50;49.71;101089.19;144992;591;6002;-82
2021/09/01 11:17:13;;;;;;;7.47;5.93;;;;;;;30.30;50.46;101089.25;144992;567;6002;-82
2021/09/01 11:19:45;;;;;;;8.52;6.45;;;;;;;30.48;50.19;101077.72;144992;580;6002;-81
2021/09/01 11:22:19;;;;;;;6.53;5.80;;;;;;;30.43;48.50;101074.34;144992;585;6002;-81
2021/09/01 11:24:54;;;;;;;6.72;5.78;;;;;;;30.51;48.71;101085.59;144993;585;6002;-81
2021/09/01 11:27:26;;;;;;;8.70;5.35;;;;;;;30.53;48.52;101081.03;144993;580;6002;-83
2021/09/01 11:30:09;;;;;;;8.38;6.10;;;;;;;30.44;49.85;101081.47;144992;638;6002;-82
2021/09/01 11:32:39;;;;;;;6.93;6.18;;;;;;;30.39;49.71;101078.13;144993;569;6002;-83
2021/09/01 11:35:20;;;;;;;6.80;6.20;;;;;;;30.35;49.11;101077.41;144993;580;6002;-82
2021/09/01 11:38:05;;;;;;;24.08;19.58;;;;;;;30.23;50.38;101071.75;144993;617;6002;-82
2021/09/01 11:40:39;;;;;;;8.05;6.50;;;;;;;30.39;48.98;101056.72;144993;566;6002;-81
2021/09/01 11:43:21;;;;;;;8.20;6.10;;;;;;;30.43;49.60;101055.59;144993;565;6002;-82
2021/09/01 11:45:49;;;;;;;7.07;6.25;;;;;;;30.43;49.78;101063.63;144993;571;6002;-82